createdAt,value
2017-06-05T00:02:11.719Z,71.30
2017-06-05T00:04:39.888Z,71.50
2017-06-05T00:07:08.093Z,71.70
2017-06-05T00:09:36.268Z,71.60
2017-06-05T00:12:04.438Z,71.60
2017-06-05T00:14:32.605Z,71.90
2017-06-05T00:17:00.787Z,72.20
2017-06-05T00:19:28.966Z,71.70
2017-06-05T00:21:57.227Z,71.90
2017-06-05T00:24:25.411Z,71.80
2017-06-05T00:26:53.589Z,72.20
2017-06-05T00:29:21.743Z,72.30
2017-06-05T00:31:49.925Z,72.70
2017-06-05T00:34:18.071Z,72.90
2017-06-05T00:36:46.220Z,73.10
2017-06-05T00:39:15.196Z,73.60
2017-06-05T00:41:43.354Z,73.60
2017-06-05T00:44:11.509Z,74.20
2017-06-05T00:46:39.710Z,73.20
2017-06-05T00:49:07.862Z,73.40
2017-06-05T00:51:36.010Z,73.80
2017-06-05T00:54:04.191Z,74.00
2017-06-05T00:56:32.338Z,74.90
2017-06-05T00:59:01.253Z,75.00
2017-06-05T01:01:29.448Z,74.90
2017-06-05T01:03:57.597Z,74.90
2017-06-05T01:06:25.766Z,75.20
2017-06-05T01:08:53.980Z,75.40
2017-06-05T01:11:22.136Z,75.80
2017-06-05T01:13:50.308Z,75.40
2017-06-05T01:16:18.572Z,75.40
2017-06-05T01:18:46.795Z,75.60
2017-06-05T01:21:14.953Z,76.20
2017-06-05T01:23:43.140Z,76.20
2017-06-05T01:26:11.310Z,77.20
2017-06-05T01:28:39.459Z,76.20
2017-06-05T01:31:07.653Z,76.20
2017-06-05T01:33:35.801Z,76.20
2017-06-05T01:36:03.954Z,76.20
2017-06-05T01:38:32.189Z,76.20
2017-06-05T01:41:00.347Z,75.90
2017-06-05T01:43:28.501Z,76.20
2017-06-05T01:45:56.760Z,76.00
2017-06-05T01:48:24.918Z,75.70
2017-06-05T01:50:53.848Z,75.80
2017-06-05T01:53:22.040Z,75.70
2017-06-05T01:55:50.209Z,75.80
2017-06-05T01:58:18.377Z,75.50
2017-06-05T02:00:46.573Z,75.40
2017-06-05T02:03:14.749Z,75.60
2017-06-05T02:05:42.907Z,75.60
2017-06-05T02:08:11.080Z,75.80
2017-06-05T02:10:39.262Z,75.50
2017-06-05T02:13:07.433Z,76.10
2017-06-05T02:15:35.644Z,75.70
2017-06-05T02:18:03.817Z,75.40
2017-06-05T02:20:31.971Z,76.00
2017-06-05T02:23:00.169Z,75.80
2017-06-05T02:25:28.349Z,76.00
2017-06-05T02:27:56.495Z,76.20
2017-06-05T02:30:24.698Z,76.70
2017-06-05T02:32:52.864Z,76.20
2017-06-05T02:35:21.014Z,76.90
2017-06-05T02:37:49.224Z,76.20
2017-06-05T02:40:17.387Z,76.10
2017-06-05T02:42:46.348Z,77.40
2017-06-05T02:45:14.527Z,76.70
2017-06-05T02:47:42.700Z,76.90
2017-06-05T02:50:10.874Z,77.10
2017-06-05T02:52:39.053Z,77.00
2017-06-05T02:55:07.220Z,76.80
2017-06-05T02:57:35.390Z,77.00
2017-06-05T03:00:03.566Z,76.40
2017-06-05T03:02:31.737Z,75.90
2017-06-05T03:04:59.910Z,76.00
2017-06-05T03:07:28.095Z,75.80
2017-06-05T03:09:56.267Z,76.00
2017-06-05T03:12:24.438Z,76.10
2017-06-05T03:14:52.613Z,75.90
2017-06-05T03:17:20.782Z,75.70
2017-06-05T03:19:48.935Z,75.40
2017-06-05T03:22:17.116Z,76.20
2017-06-05T03:24:45.286Z,76.40
2017-06-05T03:27:13.469Z,76.40
2017-06-05T03:29:41.764Z,76.40
2017-06-05T03:32:09.920Z,75.70
2017-06-05T03:34:38.093Z,75.50
2017-06-05T03:37:06.629Z,75.60
2017-06-05T03:39:34.790Z,75.40
2017-06-05T03:42:02.966Z,75.60
2017-06-05T03:44:31.167Z,76.00
2017-06-05T03:46:59.339Z,76.00
2017-06-05T03:49:27.485Z,75.80
2017-06-05T03:51:55.664Z,75.60
2017-06-05T03:54:23.833Z,75.40
2017-06-05T03:56:52.002Z,75.60
2017-06-05T03:59:20.202Z,75.20
2017-06-05T04:01:48.355Z,75.00
2017-06-05T04:04:16.515Z,75.00
2017-06-05T04:06:45.116Z,75.10
2017-06-05T04:09:13.262Z,75.00
2017-06-05T04:11:41.413Z,74.80
2017-06-05T04:14:10.372Z,73.90
2017-06-05T04:16:38.541Z,73.80
2017-06-05T04:19:06.693Z,72.90
2017-06-05T04:21:34.877Z,73.30
2017-06-05T04:24:03.022Z,73.40
2017-06-05T04:26:31.182Z,73.30
2017-06-05T04:28:59.386Z,73.10
2017-06-05T04:31:27.564Z,73.10
2017-06-05T04:33:55.733Z,72.70
2017-06-05T04:36:23.924Z,72.50
2017-06-05T04:38:52.092Z,72.10
2017-06-05T04:41:20.253Z,71.30
2017-06-05T04:43:48.430Z,70.60
2017-06-05T04:46:16.613Z,69.60
2017-06-05T04:48:44.780Z,70.00
2017-06-05T04:51:12.962Z,69.50
2017-06-05T04:53:41.137Z,69.30
2017-06-05T04:56:09.311Z,68.80
2017-06-05T04:58:37.513Z,69.20
2017-06-05T05:01:05.689Z,67.80
2017-06-05T05:03:34.602Z,67.80
2017-06-05T05:06:02.797Z,67.70
2017-06-05T05:08:30.949Z,68.20
2017-06-05T05:10:59.112Z,67.30
2017-06-05T05:13:28.102Z,66.20
2017-06-05T05:15:57.042Z,66.20
2017-06-05T05:18:25.236Z,66.10
2017-06-05T05:20:53.449Z,66.00
2017-06-05T05:23:22.364Z,65.10
2017-06-05T05:25:50.537Z,65.00
2017-06-05T05:28:18.716Z,65.30
2017-06-05T05:30:46.866Z,65.50
2017-06-05T05:33:15.802Z,64.50
2017-06-05T05:35:44.004Z,64.40
2017-06-05T05:38:12.170Z,63.70
2017-06-05T05:40:40.324Z,62.70
2017-06-05T05:43:08.584Z,62.90
2017-06-05T05:45:36.745Z,63.40
2017-06-05T05:48:04.891Z,63.90
2017-06-05T05:50:33.863Z,64.60
2017-06-05T05:53:02.036Z,63.80
2017-06-05T05:55:30.209Z,63.40
2017-06-05T05:57:58.384Z,63.30
2017-06-05T06:00:26.552Z,63.20
2017-06-05T06:02:54.709Z,63.30
2017-06-05T06:05:22.917Z,63.50
2017-06-05T06:07:51.076Z,64.30
2017-06-05T06:10:19.226Z,63.40
2017-06-05T06:12:47.541Z,62.90
2017-06-05T06:15:15.700Z,60.90
2017-06-05T06:17:43.854Z,60.30
2017-06-05T06:20:12.795Z,60.70
2017-06-05T06:22:40.942Z,60.30
2017-06-05T06:25:09.099Z,60.40
2017-06-05T06:27:38.046Z,58.50
2017-06-05T06:30:06.199Z,58.30
2017-06-05T06:32:34.358Z,57.60
2017-06-05T06:35:02.541Z,57.50
2017-06-05T06:37:30.691Z,57.50
2017-06-05T06:39:59.640Z,56.60
2017-06-05T06:42:29.466Z,56.90
2017-06-05T06:44:57.636Z,56.90
2017-06-05T06:47:25.783Z,55.40
2017-06-05T06:49:53.985Z,54.50
2017-06-05T06:52:22.161Z,54.00
2017-06-05T06:54:50.305Z,54.20
2017-06-05T06:57:18.493Z,55.30
2017-06-05T06:59:46.668Z,54.70
2017-06-05T07:02:14.817Z,54.10
2017-06-05T07:04:43.017Z,53.20
2017-06-05T07:07:11.187Z,52.80
2017-06-05T07:09:39.344Z,52.00
2017-06-05T07:12:07.541Z,52.30
2017-06-05T07:14:35.706Z,51.30
2017-06-05T07:17:03.874Z,51.00
2017-06-05T07:19:32.058Z,50.60
2017-06-05T07:22:00.217Z,52.10
2017-06-05T07:24:29.155Z,50.10
2017-06-05T07:26:57.361Z,50.70
2017-06-05T07:29:25.635Z,50.80
2017-06-05T07:31:53.804Z,51.10
2017-06-05T07:34:22.006Z,50.90
2017-06-05T07:36:50.941Z,48.90
2017-06-05T07:39:19.085Z,48.90
2017-06-05T07:41:48.025Z,48.70
2017-06-05T07:44:16.176Z,48.70
2017-06-05T07:46:44.349Z,48.70
2017-06-05T07:49:12.548Z,48.10
2017-06-05T07:51:40.726Z,48.60
2017-06-05T07:54:08.915Z,47.30
2017-06-05T07:56:37.251Z,46.90
2017-06-05T07:59:06.187Z,41.80
2017-06-05T08:01:34.951Z,41.70
2017-06-05T08:04:03.931Z,43.70
2017-06-05T08:06:32.094Z,43.80
2017-06-05T08:09:00.269Z,42.60
2017-06-05T08:11:28.479Z,41.60
2017-06-05T08:13:57.412Z,41.60
2017-06-05T08:16:25.567Z,41.00
2017-06-05T08:18:53.755Z,40.30
2017-06-05T08:21:21.932Z,40.80
2017-06-05T08:23:50.091Z,37.20
2017-06-05T08:26:18.277Z,37.70
2017-06-05T08:28:46.435Z,37.60
2017-06-05T08:31:14.601Z,36.80
2017-06-05T08:33:42.804Z,34.90
2017-06-05T08:36:10.965Z,33.40
2017-06-05T08:38:39.135Z,29.80
2017-06-05T08:41:07.342Z,29.00
2017-06-05T08:43:35.499Z,28.00
2017-06-05T08:46:06.624Z,28.00
2017-06-05T08:48:34.827Z,27.50
2017-06-05T08:51:03.002Z,28.80
2017-06-05T08:53:31.174Z,27.90
2017-06-05T08:55:59.376Z,27.60
2017-06-05T08:58:27.535Z,27.00
2017-06-05T09:00:55.706Z,26.30
2017-06-05T09:03:23.893Z,24.70
2017-06-05T09:05:52.077Z,24.20
2017-06-05T09:08:20.235Z,23.70
2017-06-05T09:10:48.431Z,22.60
2017-06-05T09:13:16.595Z,21.80
2017-06-05T09:15:44.765Z,22.40
2017-06-05T09:18:12.943Z,23.00
2017-06-05T09:20:41.113Z,21.60
2017-06-05T09:23:09.258Z,21.90
2017-06-05T09:25:37.447Z,23.40
2017-06-05T09:28:05.594Z,22.50
2017-06-05T09:30:33.764Z,20.90
2017-06-05T09:33:01.951Z,22.40
2017-06-05T09:35:30.098Z,22.50
2017-06-05T09:37:58.272Z,23.80
2017-06-05T09:40:26.476Z,22.40
2017-06-05T09:42:54.649Z,20.60
2017-06-05T09:45:22.815Z,22.50
2017-06-05T09:47:50.999Z,23.00
2017-06-05T09:50:19.158Z,24.20
2017-06-05T09:52:47.317Z,24.10
2017-06-05T09:55:15.526Z,22.90
2017-06-05T09:57:43.697Z,22.00
2017-06-05T10:00:11.855Z,21.10
2017-06-05T10:02:40.052Z,21.10
2017-06-05T10:05:08.226Z,22.20
2017-06-05T10:07:36.382Z,20.90
2017-06-05T10:10:04.576Z,18.60
2017-06-05T10:12:32.724Z,20.20
2017-06-05T10:15:00.870Z,20.10
2017-06-05T10:17:29.844Z,17.90
2017-06-05T10:19:58.013Z,17.90
2017-06-05T10:22:26.170Z,17.10
2017-06-05T10:24:54.366Z,18.70
2017-06-05T10:27:23.303Z,20.10
2017-06-05T10:29:51.487Z,19.60
2017-06-05T10:32:19.688Z,19.30
2017-06-05T10:34:47.856Z,16.90
2017-06-05T10:37:16.027Z,17.70
2017-06-05T10:39:44.253Z,19.60
2017-06-05T10:42:13.197Z,22.00
2017-06-05T10:44:41.373Z,22.40
2017-06-05T10:47:09.578Z,20.90
2017-06-05T10:49:38.512Z,19.50
2017-06-05T10:52:06.658Z,19.40
2017-06-05T10:54:34.838Z,20.30
2017-06-05T10:57:03.010Z,21.90
2017-06-05T10:59:31.177Z,22.20
2017-06-05T11:01:59.374Z,21.70
2017-06-05T11:04:27.553Z,21.90
2017-06-05T11:06:55.713Z,20.90
2017-06-05T11:09:23.921Z,20.70
2017-06-05T11:11:52.070Z,20.60
2017-06-05T11:14:20.241Z,21.50
2017-06-05T11:16:48.422Z,23.50
2017-06-05T11:19:16.600Z,24.00
2017-06-05T11:21:44.780Z,23.60
2017-06-05T11:24:12.988Z,24.40
2017-06-05T11:26:41.141Z,24.30
2017-06-05T11:29:09.293Z,24.40
2017-06-05T11:31:37.497Z,26.50
2017-06-05T11:34:05.662Z,27.30
2017-06-05T11:36:33.839Z,28.80
2017-06-05T11:39:02.045Z,28.80
2017-06-05T11:41:30.963Z,28.40
2017-06-05T11:43:59.170Z,28.20
2017-06-05T11:46:27.373Z,27.00
2017-06-05T11:48:55.548Z,27.80
2017-06-05T11:51:23.713Z,29.20
2017-06-05T11:53:51.917Z,28.20
2017-06-05T11:56:20.846Z,26.80
2017-06-05T11:58:49.007Z,26.70
2017-06-05T12:01:17.189Z,27.60
2017-06-05T12:03:45.358Z,27.30
2017-06-05T12:06:13.530Z,27.80
2017-06-05T12:08:41.735Z,27.60
2017-06-05T12:11:09.902Z,27.90
2017-06-05T12:13:38.084Z,29.70
2017-06-05T12:16:06.278Z,30.20
2017-06-05T12:18:34.431Z,27.80
2017-06-05T12:21:02.610Z,28.20
2017-06-05T12:23:30.815Z,30.80
2017-06-05T12:25:58.985Z,30.40
2017-06-05T12:28:27.143Z,30.10
2017-06-05T12:30:55.346Z,29.10
2017-06-05T12:33:23.512Z,30.40
2017-06-05T12:35:51.685Z,29.20
2017-06-05T12:38:19.887Z,28.50
2017-06-05T12:40:48.805Z,30.80
2017-06-05T12:43:16.959Z,30.70
2017-06-05T12:45:45.938Z,31.90
2017-06-05T12:48:14.861Z,33.20
2017-06-05T12:50:43.032Z,33.00
2017-06-05T12:53:11.244Z,31.80
2017-06-05T12:55:39.413Z,30.20
2017-06-05T12:58:07.571Z,31.20
2017-06-05T13:00:35.754Z,29.00
2017-06-05T13:03:03.902Z,30.00
2017-06-05T13:05:32.090Z,29.10
2017-06-05T13:08:00.293Z,30.70
2017-06-05T13:10:28.433Z,30.80
2017-06-05T13:12:56.597Z,30.60
2017-06-05T13:15:24.783Z,30.00
2017-06-05T13:17:52.931Z,31.30
2017-06-05T13:20:21.918Z,32.60
2017-06-05T13:22:50.870Z,31.50
2017-06-05T13:25:19.039Z,31.50
2017-06-05T13:27:47.209Z,29.40
2017-06-05T13:30:15.383Z,30.80
2017-06-05T13:32:43.535Z,30.60
2017-06-05T13:35:11.701Z,30.80
2017-06-05T13:37:39.911Z,33.50
2017-06-05T13:40:08.080Z,32.40
2017-06-05T13:42:36.230Z,29.30
2017-06-05T13:45:04.423Z,28.80
2017-06-05T13:47:32.579Z,27.80
2017-06-05T13:50:00.753Z,26.70
2017-06-05T13:52:28.938Z,27.40
2017-06-05T13:54:57.086Z,27.00
2017-06-05T13:57:25.265Z,27.40
2017-06-05T13:59:53.462Z,27.50
2017-06-05T14:02:21.609Z,27.80
2017-06-05T14:04:50.544Z,27.30
2017-06-05T14:07:18.740Z,27.20
2017-06-05T14:09:46.895Z,29.40
2017-06-05T14:12:15.067Z,28.30
2017-06-05T14:14:43.248Z,27.50
2017-06-05T14:17:11.399Z,25.20
2017-06-05T14:19:39.553Z,24.90
2017-06-05T14:22:08.513Z,24.40
2017-06-05T14:24:36.693Z,24.40
2017-06-05T14:27:04.846Z,25.80
2017-06-05T14:29:33.051Z,27.10
2017-06-05T14:32:01.194Z,27.90
2017-06-05T14:34:29.338Z,26.50
2017-06-05T14:36:57.537Z,26.40
2017-06-05T14:39:25.685Z,26.50
2017-06-05T14:41:53.859Z,26.00
2017-06-05T14:44:22.064Z,25.50
2017-06-05T14:46:50.222Z,26.10
2017-06-05T14:49:18.378Z,27.50
2017-06-05T14:51:46.573Z,26.10
2017-06-05T14:54:14.745Z,25.70
2017-06-05T14:56:42.921Z,23.30
2017-06-05T14:59:11.121Z,24.30
2017-06-05T15:01:39.284Z,24.00
2017-06-05T15:04:07.456Z,23.80
2017-06-05T15:06:35.634Z,24.50
2017-06-05T15:09:03.784Z,25.80
2017-06-05T15:11:31.931Z,26.30
2017-06-05T15:14:00.114Z,26.40
2017-06-05T15:16:28.261Z,26.10
2017-06-05T15:18:57.183Z,26.50
2017-06-05T15:21:25.354Z,26.10
2017-06-05T15:23:53.522Z,25.40
2017-06-05T15:26:21.689Z,24.80
2017-06-05T15:28:50.649Z,23.00
2017-06-05T15:31:18.794Z,22.90
2017-06-05T15:33:46.953Z,23.20
2017-06-05T15:36:15.153Z,23.00
2017-06-05T15:38:43.311Z,22.60
2017-06-05T15:41:11.467Z,22.20
2017-06-05T15:43:39.675Z,23.70
2017-06-05T15:46:07.858Z,23.40
2017-06-05T15:48:36.009Z,23.40
2017-06-05T15:51:04.183Z,24.30
2017-06-05T15:53:32.329Z,25.20
2017-06-05T15:56:01.265Z,25.20
2017-06-05T15:58:29.484Z,25.20
2017-06-05T16:00:58.432Z,24.30
2017-06-05T16:03:26.602Z,24.30
2017-06-05T16:05:54.786Z,24.30
2017-06-05T16:08:22.941Z,23.60
2017-06-05T16:10:51.103Z,23.30
2017-06-05T16:13:19.289Z,23.30
2017-06-05T16:15:47.461Z,23.50
2017-06-05T16:18:15.634Z,23.60
2017-06-05T16:20:43.817Z,24.30
2017-06-05T16:23:11.964Z,24.60
2017-06-05T16:25:40.133Z,25.30
2017-06-05T16:28:08.322Z,25.60
2017-06-05T16:30:36.473Z,25.50
2017-06-05T16:33:05.414Z,25.70
2017-06-05T16:35:33.694Z,25.70
2017-06-05T16:38:01.867Z,25.20
2017-06-05T16:40:30.044Z,24.60
2017-06-05T16:42:58.229Z,25.30
2017-06-05T16:45:26.382Z,25.00
2017-06-05T16:47:54.534Z,25.60
2017-06-05T16:50:23.505Z,26.10
2017-06-05T16:52:52.437Z,26.50
2017-06-05T16:55:20.597Z,26.50
2017-06-05T16:57:49.565Z,26.60
2017-06-05T17:00:17.729Z,26.60
2017-06-05T17:02:45.905Z,26.50
2017-06-05T17:05:14.082Z,26.80
2017-06-05T17:07:42.248Z,27.00
2017-06-05T17:10:10.422Z,26.80
2017-06-05T17:12:38.598Z,26.40
2017-06-05T17:15:06.765Z,26.80
2017-06-05T17:17:35.000Z,27.10
2017-06-05T17:20:03.938Z,26.00
2017-06-05T17:22:32.087Z,25.90
2017-06-05T17:25:00.245Z,25.90
2017-06-05T17:27:28.460Z,25.60
2017-06-05T17:29:56.628Z,25.60
2017-06-05T17:32:24.778Z,24.80
2017-06-05T17:34:52.981Z,25.30
2017-06-05T17:37:21.131Z,25.50
2017-06-05T17:39:49.287Z,25.80
2017-06-05T17:42:18.263Z,26.20
2017-06-05T17:44:47.182Z,26.40
2017-06-05T17:47:15.384Z,25.80
2017-06-05T17:49:44.690Z,26.30
2017-06-05T17:52:12.861Z,26.60
2017-06-05T17:54:41.015Z,27.00
2017-06-05T17:57:09.194Z,27.00
2017-06-05T17:59:37.369Z,26.20
2017-06-05T18:02:05.546Z,26.80
2017-06-05T18:04:33.752Z,26.70
2017-06-05T18:07:02.689Z,27.90
2017-06-05T18:09:30.842Z,27.40
2017-06-05T18:11:59.027Z,27.50
2017-06-05T18:14:27.199Z,28.00
2017-06-05T18:16:55.367Z,27.60
2017-06-05T18:19:23.568Z,27.80
2017-06-05T18:21:51.713Z,28.30
2017-06-05T18:24:19.880Z,28.20
2017-06-05T18:26:48.076Z,28.20
2017-06-05T18:29:16.225Z,28.10
2017-06-05T18:31:44.375Z,28.70
2017-06-05T18:34:12.577Z,28.80
2017-06-05T18:36:40.752Z,28.90
2017-06-05T18:39:08.928Z,29.10
2017-06-05T18:41:37.110Z,29.10
2017-06-05T18:44:05.275Z,29.10
2017-06-05T18:46:33.446Z,29.20
2017-06-05T18:49:01.623Z,29.50
2017-06-05T18:51:29.905Z,29.90
2017-06-05T18:53:58.063Z,30.60
2017-06-05T18:56:26.233Z,30.70
2017-06-05T18:58:54.436Z,30.90
2017-06-05T19:01:22.584Z,30.50
2017-06-05T19:03:50.800Z,30.90
2017-06-05T19:06:18.959Z,31.20
2017-06-05T19:08:47.127Z,31.20
2017-06-05T19:11:15.329Z,31.70
2017-06-05T19:13:43.486Z,31.90
2017-06-05T19:16:11.641Z,31.90
2017-06-05T19:18:39.861Z,32.00
2017-06-05T19:21:08.028Z,32.00
2017-06-05T19:23:36.239Z,31.80
2017-06-05T19:26:04.450Z,32.90
2017-06-05T19:28:32.601Z,33.20
2017-06-05T19:31:00.780Z,33.40
2017-06-05T19:33:28.999Z,33.00
2017-06-05T19:35:57.158Z,33.30
2017-06-05T19:38:25.306Z,33.70
2017-06-05T19:40:53.493Z,33.80
2017-06-05T19:43:21.652Z,34.60
2017-06-05T19:45:49.798Z,34.40
2017-06-05T19:48:18.760Z,34.60
2017-06-05T19:50:46.911Z,34.60
2017-06-05T19:53:15.065Z,34.60
2017-06-05T19:55:43.285Z,35.10
2017-06-05T19:58:11.453Z,35.10
2017-06-05T20:00:39.629Z,35.30
2017-06-05T20:03:07.805Z,35.30
2017-06-05T20:05:35.978Z,35.50
2017-06-05T20:08:04.133Z,35.40
2017-06-05T20:10:32.317Z,35.60
2017-06-05T20:13:00.495Z,36.50
2017-06-05T20:15:28.648Z,35.90
2017-06-05T20:17:56.864Z,36.30
2017-06-05T20:20:25.029Z,36.70
2017-06-05T20:22:53.197Z,37.10
2017-06-05T20:25:21.370Z,37.50
2017-06-05T20:27:49.545Z,37.60
2017-06-05T20:30:17.699Z,37.90
2017-06-05T20:32:45.909Z,37.80
2017-06-05T20:35:14.071Z,38.00
2017-06-05T20:37:42.244Z,38.10
2017-06-05T20:42:47.642Z,39.00
2017-06-05T20:45:16.617Z,39.00
2017-06-05T20:47:44.826Z,39.00
2017-06-05T20:50:12.990Z,39.30
2017-06-05T20:52:41.965Z,39.40
2017-06-05T20:55:10.901Z,39.20
2017-06-05T20:57:39.046Z,39.50
2017-06-05T21:00:07.994Z,40.30
2017-06-05T21:02:36.147Z,40.20
2017-06-05T21:05:04.306Z,40.40
2017-06-05T21:07:32.486Z,40.60
2017-06-05T21:10:00.630Z,41.10
2017-06-05T21:12:29.607Z,41.60
2017-06-05T21:14:57.835Z,41.50
2017-06-05T21:17:26.027Z,41.90
2017-06-05T21:19:54.202Z,42.30
2017-06-05T21:22:22.385Z,42.60
2017-06-05T21:24:50.542Z,43.20
2017-06-05T21:27:18.754Z,43.10
2017-06-05T21:29:46.960Z,43.10
2017-06-05T21:32:15.896Z,43.10
2017-06-05T21:34:44.062Z,43.10
2017-06-05T21:37:12.255Z,43.30
2017-06-05T21:39:40.445Z,43.50
2017-06-05T21:42:08.615Z,43.30
2017-06-05T21:44:37.566Z,45.10
2017-06-05T21:47:05.777Z,44.40
2017-06-05T21:49:33.962Z,44.40
2017-06-05T21:52:02.955Z,45.20
2017-06-05T21:54:31.963Z,46.20
2017-06-05T21:57:00.180Z,45.60
2017-06-05T21:59:28.382Z,45.90
2017-06-05T22:01:56.576Z,46.40
2017-06-05T22:04:25.497Z,47.50
2017-06-05T22:06:53.693Z,47.50
2017-06-05T22:09:22.001Z,48.10
2017-06-05T22:11:50.191Z,48.50
2017-06-05T22:14:19.139Z,49.60
2017-06-05T22:16:47.308Z,49.50
2017-06-05T22:19:15.468Z,49.80
2017-06-05T22:21:43.673Z,50.40
2017-06-05T22:24:11.814Z,50.90
2017-06-05T22:26:39.978Z,51.50
2017-06-05T22:29:08.163Z,52.00
2017-06-05T22:31:36.313Z,52.60
2017-06-05T22:34:05.233Z,53.40
2017-06-05T22:36:33.441Z,53.40
2017-06-05T22:39:01.598Z,53.70
2017-06-05T22:41:30.382Z,54.40
2017-06-05T22:43:59.274Z,54.80
2017-06-05T22:46:27.430Z,55.30
2017-06-05T22:48:55.608Z,55.80
2017-06-05T22:51:23.782Z,56.20
2017-06-05T22:53:51.951Z,56.50
2017-06-05T22:56:20.118Z,56.90
2017-06-05T22:58:48.302Z,57.20
2017-06-05T23:01:16.474Z,57.60
2017-06-05T23:03:44.645Z,58.10
2017-06-05T23:06:12.843Z,58.50
2017-06-05T23:08:41.020Z,59.00
2017-06-05T23:11:09.212Z,59.20
2017-06-05T23:13:37.453Z,59.50
2017-06-05T23:16:05.620Z,59.30
2017-06-05T23:18:33.774Z,59.90
2017-06-05T23:21:02.726Z,60.80
2017-06-05T23:23:30.889Z,60.60
2017-06-05T23:25:59.062Z,60.70
2017-06-05T23:28:27.239Z,61.00
2017-06-05T23:30:55.480Z,61.80
2017-06-05T23:33:23.631Z,62.10
2017-06-05T23:35:52.611Z,63.00
2017-06-05T23:38:20.761Z,62.70
2017-06-05T23:40:48.948Z,63.10
2017-06-05T23:43:17.127Z,63.20
2017-06-05T23:45:45.278Z,63.40
2017-06-05T23:48:13.441Z,63.80
2017-06-05T23:50:41.619Z,64.20
2017-06-05T23:53:09.784Z,65.00
2017-06-05T23:55:37.932Z,65.30
2017-06-05T23:58:06.889Z,65.90
